Terminal Aerodrome Forecast
Issued by NWS

Home | Current Version | Previous Version | Text Only | Print | Product List | Glossary On
Versions: 1 2 3 4 5 6 7 8 9 10 11 12 13 14 15 16 17 18 19 20 21 22 23 24 25 26 27 28 29
407
FTUS43 KGRR 132116 AAB
TAFLAN
TAF AMD
KLAN 132116Z 1321/1418 10012KT 1SM -SN OVC015
      TEMPO 1321/1323 1/4SM +SN OVC009
     FM132300 13012KT 1 1/2SM -SN BR OVC015
     FM140100 08010KT 6SM -SN BR OVC035
     FM140600 36006KT P6SM BKN080=

USA.gov is the U.S. government's official web portal to all federal, state and local government web resources and services.